createdAt,value
2023-01-21T00:01:13.010Z,0.90
2023-01-21T00:03:39.430Z,0.72
2023-01-21T00:06:05.900Z,0.69
2023-01-21T00:08:32.272Z,0.61
2023-01-21T00:10:58.678Z,0.69
2023-01-21T00:13:25.029Z,0.70
2023-01-21T00:15:51.472Z,0.80
2023-01-21T00:18:17.889Z,0.82
2023-01-21T00:20:44.255Z,0.83
2023-01-21T00:23:10.696Z,0.88
2023-01-21T00:25:37.059Z,0.93
2023-01-21T00:28:03.450Z,0.93
2023-01-21T00:30:29.804Z,0.96
2023-01-21T00:32:56.188Z,0.99
2023-01-21T00:35:22.578Z,1.04
2023-01-21T00:37:48.951Z,1.12
2023-01-21T00:40:15.726Z,1.31
2023-01-21T00:42:42.358Z,1.11
2023-01-21T00:45:08.753Z,1.28
2023-01-21T00:47:35.143Z,1.29
2023-01-21T00:50:01.543Z,1.27
2023-01-21T00:52:27.941Z,1.15
2023-01-21T00:54:54.311Z,1.09
2023-01-21T00:57:20.691Z,1.07
2023-01-21T00:59:47.386Z,1.04
2023-01-21T01:02:13.778Z,1.09
2023-01-21T01:04:40.185Z,1.20
2023-01-21T01:07:06.554Z,1.10
2023-01-21T01:09:32.923Z,1.07
2023-01-21T01:11:59.303Z,1.05
2023-01-21T01:14:25.689Z,1.06
2023-01-21T01:16:52.059Z,0.98
2023-01-21T01:19:18.474Z,1.08
2023-01-21T01:21:44.853Z,1.13
2023-01-21T01:24:11.249Z,0.94
2023-01-21T01:26:37.631Z,1.06
2023-01-21T01:29:04.021Z,1.10
2023-01-21T01:31:30.441Z,1.11
2023-01-21T01:33:56.817Z,1.08
2023-01-21T01:36:23.200Z,1.02
2023-01-21T01:38:49.594Z,1.13
2023-01-21T01:41:16.009Z,1.12
2023-01-21T01:43:42.382Z,1.30
2023-01-21T01:46:08.819Z,1.16
2023-01-21T01:48:35.211Z,1.13
2023-01-21T01:51:01.625Z,1.18
2023-01-21T01:53:28.035Z,1.12
2023-01-21T01:55:54.404Z,1.14
2023-01-21T01:58:20.750Z,1.20
2023-01-21T02:00:47.133Z,1.18
2023-01-21T02:03:13.501Z,1.05
2023-01-21T02:05:39.857Z,0.81
2023-01-21T02:08:06.226Z,0.72
2023-01-21T02:10:32.576Z,1.04
2023-01-21T02:12:58.947Z,1.03
2023-01-21T02:15:25.318Z,0.92
2023-01-21T02:17:51.699Z,0.65
2023-01-21T02:20:18.505Z,0.49
2023-01-21T02:22:44.971Z,0.68
2023-01-21T02:25:11.343Z,0.48
2023-01-21T02:27:37.733Z,0.57
2023-01-21T02:30:04.100Z,0.50
2023-01-21T02:32:30.507Z,0.43
2023-01-21T02:34:56.936Z,0.51
2023-01-21T02:37:23.295Z,0.47
2023-01-21T02:39:49.656Z,0.41
2023-01-21T02:42:16.049Z,0.36
2023-01-21T02:44:42.435Z,0.39
2023-01-21T02:47:08.789Z,0.36
2023-01-21T02:49:35.205Z,0.30
2023-01-21T02:52:01.682Z,0.31
2023-01-21T02:54:28.075Z,0.28
2023-01-21T02:56:54.447Z,0.16
2023-01-21T02:59:20.838Z,0.16
2023-01-21T03:01:47.360Z,0.22
2023-01-21T03:04:13.764Z,0.19
2023-01-21T03:06:40.160Z,0.16
2023-01-21T03:09:06.527Z,0.31
2023-01-21T03:11:33.040Z,0.18
2023-01-21T03:13:59.427Z,0.21
2023-01-21T03:16:25.930Z,0.05
2023-01-21T03:18:52.456Z,-0.02
2023-01-21T03:21:18.823Z,0.02
2023-01-21T03:23:45.292Z,0.04
2023-01-21T03:26:11.644Z,0.13
2023-01-21T03:28:38.028Z,0.16
2023-01-21T03:31:04.698Z,0.15
2023-01-21T03:33:31.139Z,0.18
2023-01-21T03:35:57.555Z,0.07
2023-01-21T03:38:23.950Z,0.05
2023-01-21T03:40:50.338Z,-0.01
2023-01-21T03:43:16.729Z,-0.18
2023-01-21T03:45:43.208Z,-0.18
2023-01-21T03:48:09.593Z,-0.07
2023-01-21T03:50:35.996Z,0.01
2023-01-21T03:53:02.461Z,-0.12
2023-01-21T03:55:28.844Z,-0.12
2023-01-21T03:57:55.232Z,-0.28
2023-01-21T04:00:21.623Z,-0.19
2023-01-21T04:02:48.009Z,-0.25
2023-01-21T04:05:14.462Z,-0.28
2023-01-21T04:07:40.835Z,-0.34
2023-01-21T04:10:07.244Z,-0.21
2023-01-21T04:12:33.573Z,-0.37
2023-01-21T04:14:59.947Z,-0.33
2023-01-21T04:17:26.338Z,-0.59
2023-01-21T04:19:52.747Z,-0.54
2023-01-21T04:22:19.129Z,-0.35
2023-01-21T04:24:45.544Z,-0.29
2023-01-21T04:27:12.003Z,-0.34
2023-01-21T04:29:38.381Z,-0.39
2023-01-21T04:32:04.755Z,-0.42
2023-01-21T04:34:31.146Z,-0.52
2023-01-21T04:36:57.520Z,-0.39
2023-01-21T04:39:23.924Z,-0.47
2023-01-21T04:41:50.365Z,-0.54
2023-01-21T04:44:16.758Z,-0.50
2023-01-21T04:46:43.153Z,-0.64
2023-01-21T04:49:09.670Z,-0.60
2023-01-21T04:51:36.089Z,-0.79
2023-01-21T04:54:02.466Z,-1.01
2023-01-21T04:56:28.859Z,-1.09
2023-01-21T04:58:55.225Z,-1.19
2023-01-21T05:01:21.642Z,-1.43
2023-01-21T05:03:48.018Z,-1.40
2023-01-21T05:06:14.416Z,-1.46
2023-01-21T05:08:40.838Z,-1.31
2023-01-21T05:11:07.227Z,-1.28
2023-01-21T05:13:33.632Z,-1.20
2023-01-21T05:16:00.037Z,-1.08
2023-01-21T05:18:26.481Z,-1.05
2023-01-21T05:20:52.874Z,-0.94
2023-01-21T05:23:19.310Z,-0.94
2023-01-21T05:25:45.692Z,-1.03
2023-01-21T05:28:12.095Z,-1.22
2023-01-21T05:30:40.696Z,-1.21
2023-01-21T05:33:07.815Z,-1.27
2023-01-21T05:35:34.177Z,-1.24
2023-01-21T05:38:00.616Z,-1.29
2023-01-21T05:40:26.994Z,-1.33
2023-01-21T05:42:53.395Z,-1.32
2023-01-21T05:45:19.770Z,-1.42
2023-01-21T05:47:46.187Z,-1.41
2023-01-21T05:50:12.563Z,-1.46
2023-01-21T05:52:38.955Z,-1.43
2023-01-21T05:55:05.407Z,-1.38
2023-01-21T05:57:31.765Z,-1.35
2023-01-21T05:59:58.141Z,-1.58
2023-01-21T06:02:24.677Z,-1.70
2023-01-21T06:04:51.065Z,-1.78
2023-01-21T06:07:17.448Z,-1.63
2023-01-21T06:09:43.907Z,-1.78
2023-01-21T06:12:10.297Z,-1.63
2023-01-21T06:14:36.696Z,-1.58
2023-01-21T06:17:03.159Z,-1.56
2023-01-21T06:19:29.679Z,-1.84
2023-01-21T06:21:56.088Z,-1.69
2023-01-21T06:24:22.551Z,-2.08
2023-01-21T06:26:48.909Z,-2.20
2023-01-21T06:29:15.290Z,-2.35
2023-01-21T06:31:41.973Z,-2.44
2023-01-21T06:34:08.405Z,-2.68
2023-01-21T06:36:34.796Z,-2.62
2023-01-21T06:39:01.187Z,-2.52
2023-01-21T06:41:27.589Z,-2.58
2023-01-21T06:43:53.976Z,-2.69
2023-01-21T06:46:20.446Z,-2.54
2023-01-21T06:48:46.845Z,-2.58
2023-01-21T06:51:13.288Z,-2.70
2023-01-21T06:53:39.678Z,-2.69
2023-01-21T06:56:06.063Z,-2.67
2023-01-21T06:58:32.453Z,-2.51
2023-01-21T07:00:58.852Z,-2.48
2023-01-21T07:03:25.254Z,-2.39
2023-01-21T07:05:51.626Z,-2.46
2023-01-21T07:08:18.013Z,-2.61
2023-01-21T07:10:46.791Z,-2.41
2023-01-21T07:13:13.989Z,-2.18
2023-01-21T07:15:41.518Z,-2.20
2023-01-21T07:18:07.924Z,-2.26
2023-01-21T07:20:34.415Z,-2.16
2023-01-21T07:23:00.792Z,-2.09
2023-01-21T07:25:27.201Z,-2.10
2023-01-21T07:27:53.619Z,-1.89
2023-01-21T07:30:19.997Z,-1.97
2023-01-21T07:32:46.348Z,-1.86
2023-01-21T07:35:12.768Z,-1.78
2023-01-21T07:37:39.124Z,-1.70
2023-01-21T07:40:05.539Z,-1.93
2023-01-21T07:42:31.945Z,-1.71
2023-01-21T07:44:58.377Z,-1.86
2023-01-21T07:47:24.761Z,-1.69
2023-01-21T07:49:51.140Z,-1.90
2023-01-21T07:52:17.575Z,-1.69
2023-01-21T07:54:43.960Z,-1.56
2023-01-21T07:57:10.356Z,-1.60
2023-01-21T07:59:36.725Z,-1.60
2023-01-21T08:02:03.280Z,-1.64
2023-01-21T08:04:29.760Z,-1.73
2023-01-21T08:06:56.142Z,-1.59
2023-01-21T08:09:22.533Z,-2.14
2023-01-21T08:11:48.914Z,-1.88
2023-01-21T08:14:15.293Z,-1.68
2023-01-21T08:16:41.685Z,-1.66
2023-01-21T08:19:08.095Z,-1.56
2023-01-21T08:21:34.455Z,-1.65
2023-01-21T08:24:00.919Z,-1.55
2023-01-21T08:26:27.316Z,-1.67
2023-01-21T08:28:53.684Z,-1.60
2023-01-21T08:31:20.212Z,-1.65
2023-01-21T08:33:46.642Z,-1.58
2023-01-21T08:36:13.029Z,-1.42
2023-01-21T08:38:39.524Z,-1.53
2023-01-21T08:41:05.881Z,-1.51
2023-01-21T08:43:32.283Z,-1.33
2023-01-21T08:45:58.741Z,-1.36
2023-01-21T08:48:25.183Z,-1.32
2023-01-21T08:50:51.582Z,-1.37
2023-01-21T08:53:17.988Z,-1.26
2023-01-21T08:55:44.421Z,-1.04
2023-01-21T08:58:10.862Z,-0.86
2023-01-21T09:00:37.283Z,-0.93
2023-01-21T09:03:03.657Z,-0.79
2023-01-21T09:05:30.107Z,-1.05
2023-01-21T09:07:58.164Z,-1.23
2023-01-21T09:10:24.727Z,-0.82
2023-01-21T09:12:51.134Z,-0.70
2023-01-21T09:15:17.762Z,-0.62
2023-01-21T09:17:44.356Z,-0.47
2023-01-21T09:20:10.850Z,-0.46
2023-01-21T09:22:37.220Z,-0.33
2023-01-21T09:25:03.594Z,-0.11
2023-01-21T09:27:30.197Z,-0.22
2023-01-21T09:29:56.627Z,0.02
2023-01-21T09:32:23.020Z,-0.12
2023-01-21T09:34:49.425Z,-0.01
2023-01-21T09:37:15.819Z,0.10
2023-01-21T09:39:42.201Z,0.40
2023-01-21T09:42:08.635Z,0.51
2023-01-21T09:44:35.014Z,0.50
2023-01-21T09:47:01.412Z,0.75
2023-01-21T09:49:27.805Z,1.08
2023-01-21T09:51:54.412Z,1.21
2023-01-21T09:54:20.789Z,1.29
2023-01-21T09:56:47.307Z,1.25
2023-01-21T09:59:13.710Z,1.20
2023-01-21T10:01:40.161Z,1.40
2023-01-21T10:04:06.641Z,1.56
2023-01-21T10:06:33.087Z,1.71
2023-01-21T10:08:59.480Z,1.51
2023-01-21T10:11:25.874Z,1.80
2023-01-21T10:13:52.273Z,1.92
2023-01-21T10:16:18.860Z,1.98
2023-01-21T10:18:45.267Z,2.27
2023-01-21T10:21:11.881Z,2.19
2023-01-21T10:23:38.291Z,2.28
2023-01-21T10:26:04.682Z,2.46
2023-01-21T10:28:31.072Z,2.42
2023-01-21T10:30:57.665Z,2.40
2023-01-21T10:33:24.102Z,2.43
2023-01-21T10:35:50.523Z,2.67
2023-01-21T10:38:16.907Z,2.17
2023-01-21T10:40:43.293Z,2.60
2023-01-21T10:43:09.706Z,2.60
2023-01-21T10:45:36.112Z,2.85
2023-01-21T10:48:02.514Z,2.88
2023-01-21T10:50:28.945Z,2.88
2023-01-21T10:52:55.374Z,2.74
2023-01-21T10:55:21.784Z,2.82
2023-01-21T10:57:48.148Z,2.49
2023-01-21T11:00:14.630Z,2.51
2023-01-21T11:02:41.165Z,2.48
2023-01-21T11:05:07.698Z,2.65
2023-01-21T11:07:34.091Z,2.68
2023-01-21T11:10:00.556Z,2.97
2023-01-21T11:12:26.967Z,3.22
2023-01-21T11:14:53.419Z,2.96
2023-01-21T11:17:20.265Z,3.17
2023-01-21T11:19:46.632Z,3.42
2023-01-21T11:22:12.992Z,3.62
2023-01-21T11:24:39.366Z,3.34
2023-01-21T11:27:05.727Z,3.51
2023-01-21T11:29:32.112Z,3.51
2023-01-21T11:31:58.557Z,3.45
2023-01-21T11:34:25.023Z,3.58
2023-01-21T11:36:51.432Z,3.06
2023-01-21T11:39:17.798Z,2.75
2023-01-21T11:41:44.248Z,2.86
2023-01-21T11:44:10.602Z,2.96
2023-01-21T11:46:36.984Z,3.23
2023-01-21T11:49:03.408Z,3.16
2023-01-21T11:51:29.792Z,3.36
2023-01-21T11:53:56.207Z,3.49
2023-01-21T11:56:22.582Z,3.13
2023-01-21T11:58:49.017Z,3.57
2023-01-21T12:01:15.407Z,3.60
2023-01-21T12:03:41.818Z,3.64
2023-01-21T12:06:08.203Z,3.17
2023-01-21T12:08:34.603Z,3.51
2023-01-21T12:11:01.007Z,3.73
2023-01-21T12:13:27.387Z,4.03
2023-01-21T12:15:53.877Z,3.86
2023-01-21T12:18:20.295Z,3.75
2023-01-21T12:20:46.672Z,4.12
2023-01-21T12:23:13.056Z,3.93
2023-01-21T12:25:39.420Z,3.73
2023-01-21T12:28:05.798Z,3.37
2023-01-21T12:30:32.226Z,3.52
2023-01-21T12:32:58.641Z,3.23
2023-01-21T12:35:25.027Z,3.18
2023-01-21T12:37:51.444Z,3.62
2023-01-21T12:40:18.079Z,3.40
2023-01-21T12:42:44.644Z,4.00
2023-01-21T12:45:11.012Z,4.63
2023-01-21T12:47:37.407Z,4.93
2023-01-21T12:50:03.783Z,4.58
2023-01-21T12:52:30.371Z,4.01
2023-01-21T12:54:56.744Z,3.97
2023-01-21T12:57:23.148Z,4.01
2023-01-21T12:59:49.568Z,4.25
2023-01-21T13:02:15.975Z,4.09
2023-01-21T13:04:42.404Z,4.27
2023-01-21T13:07:08.767Z,4.23
2023-01-21T13:09:35.185Z,3.92
2023-01-21T13:12:01.554Z,4.26
2023-01-21T13:14:27.973Z,4.00
2023-01-21T13:16:54.363Z,4.58
2023-01-21T13:19:20.720Z,4.40
2023-01-21T13:21:47.090Z,4.09
2023-01-21T13:24:13.470Z,4.32
2023-01-21T13:26:39.857Z,4.49
2023-01-21T13:29:06.249Z,4.69
2023-01-21T13:31:32.736Z,5.37
2023-01-21T13:33:59.156Z,5.04
2023-01-21T13:36:25.545Z,4.96
2023-01-21T13:38:51.937Z,5.40
2023-01-21T13:41:18.333Z,5.13
2023-01-21T13:43:44.726Z,5.34
2023-01-21T13:46:11.179Z,5.20
2023-01-21T13:48:37.568Z,4.89
2023-01-21T13:51:04.035Z,5.96
2023-01-21T13:53:30.535Z,6.23
2023-01-21T13:55:56.908Z,6.17
2023-01-21T13:58:23.278Z,6.22
2023-01-21T14:00:49.711Z,6.32
2023-01-21T14:03:16.115Z,5.98
2023-01-21T14:05:42.569Z,6.16
2023-01-21T14:08:08.927Z,7.02
2023-01-21T14:10:35.332Z,7.59
2023-01-21T14:13:01.770Z,7.52
2023-01-21T14:15:28.127Z,7.83
2023-01-21T14:17:54.503Z,8.28
2023-01-21T14:20:20.955Z,7.99
2023-01-21T14:22:47.325Z,7.29
2023-01-21T14:25:13.871Z,6.38
2023-01-21T14:27:40.255Z,6.09
2023-01-21T14:32:57.009Z,7.35
2023-01-21T14:35:23.620Z,7.30
2023-01-21T14:37:49.990Z,7.69
2023-01-21T14:40:16.599Z,7.23
2023-01-21T14:42:43.112Z,7.21
2023-01-21T14:45:09.499Z,8.04
2023-01-21T14:47:35.868Z,8.39
2023-01-21T14:50:02.263Z,8.24
2023-01-21T14:52:28.645Z,8.67
2023-01-21T14:54:55.013Z,8.82
2023-01-21T14:57:21.410Z,8.14
2023-01-21T14:59:47.791Z,7.52
2023-01-21T15:02:14.177Z,7.70
2023-01-21T15:04:40.579Z,7.01
2023-01-21T15:07:06.994Z,7.00
2023-01-21T15:09:33.367Z,6.66
2023-01-21T15:11:59.719Z,6.78
2023-01-21T15:14:26.148Z,6.75
2023-01-21T15:16:52.714Z,6.27
2023-01-21T15:19:19.137Z,5.28
2023-01-21T15:21:45.501Z,4.80
2023-01-21T15:24:11.895Z,3.50
2023-01-21T15:26:38.261Z,3.58
2023-01-21T15:29:04.637Z,3.17
2023-01-21T15:31:31.135Z,3.33
2023-01-21T15:33:57.634Z,4.02
2023-01-21T15:36:23.984Z,4.34
2023-01-21T15:38:50.358Z,4.98
2023-01-21T15:41:16.735Z,4.89
2023-01-21T15:43:43.130Z,5.23
2023-01-21T15:46:09.718Z,5.31
2023-01-21T15:48:41.807Z,5.42
2023-01-21T15:51:08.730Z,5.32
2023-01-21T15:53:35.189Z,5.78
2023-01-21T15:56:01.591Z,5.97
2023-01-21T15:58:27.967Z,5.94
2023-01-21T16:00:54.424Z,6.02
2023-01-21T16:03:20.872Z,5.46
2023-01-21T16:05:47.239Z,5.28
2023-01-21T16:08:13.627Z,4.84
2023-01-21T16:10:40.184Z,3.91
2023-01-21T16:13:06.558Z,2.92
2023-01-21T16:15:32.976Z,2.38
2023-01-21T16:17:59.697Z,2.00
2023-01-21T16:20:26.051Z,1.88
2023-01-21T16:22:52.397Z,1.75
2023-01-21T16:25:19.159Z,1.54
2023-01-21T16:27:45.756Z,1.60
2023-01-21T16:30:12.128Z,1.43
2023-01-21T16:32:38.503Z,1.45
2023-01-21T16:35:04.859Z,1.37
2023-01-21T16:37:31.223Z,1.40
2023-01-21T16:39:57.602Z,1.51
2023-01-21T16:42:23.978Z,1.46
2023-01-21T16:44:50.401Z,1.12
2023-01-21T16:47:18.105Z,1.16
2023-01-21T16:49:44.511Z,0.99
2023-01-21T16:52:10.932Z,0.91
2023-01-21T16:54:37.339Z,0.92
2023-01-21T16:57:03.749Z,0.56
2023-01-21T16:59:30.169Z,0.57
2023-01-21T17:01:56.635Z,0.48
2023-01-21T17:04:23.063Z,0.48
2023-01-21T17:06:49.472Z,0.46
2023-01-21T17:09:15.858Z,0.62
2023-01-21T17:11:42.221Z,0.40
2023-01-21T17:14:08.620Z,0.47
2023-01-21T17:16:35.004Z,1.12
2023-01-21T17:19:01.414Z,0.63
2023-01-21T17:21:27.793Z,0.53
2023-01-21T17:23:54.203Z,0.24
2023-01-21T17:26:20.639Z,0.27
2023-01-21T17:28:47.042Z,0.25
2023-01-21T17:31:13.515Z,0.30
2023-01-21T17:33:39.996Z,0.30
2023-01-21T17:36:06.404Z,0.24
2023-01-21T17:38:32.832Z,0.17
2023-01-21T17:40:59.212Z,-0.07
2023-01-21T17:43:25.608Z,0.01
2023-01-21T17:45:51.997Z,-0.11
2023-01-21T17:48:18.416Z,0.02
2023-01-21T17:50:44.812Z,-0.23
2023-01-21T17:53:11.179Z,-0.37
2023-01-21T17:55:37.554Z,-0.38
2023-01-21T17:58:03.971Z,-0.40
2023-01-21T18:00:30.354Z,-0.33
2023-01-21T18:02:56.807Z,-0.43
2023-01-21T18:05:23.228Z,-0.48
2023-01-21T18:07:49.640Z,-0.48
2023-01-21T18:10:16.140Z,-0.59
2023-01-21T18:12:42.558Z,-0.45
2023-01-21T18:15:08.962Z,-0.59
2023-01-21T18:17:35.370Z,-0.84
2023-01-21T18:20:01.818Z,-0.79
2023-01-21T18:22:28.334Z,-0.67
2023-01-21T18:24:54.701Z,-0.81
2023-01-21T18:27:21.068Z,-0.63
2023-01-21T18:29:47.445Z,-0.72
2023-01-21T18:32:13.835Z,-0.58
2023-01-21T18:34:40.351Z,-0.65
2023-01-21T18:37:06.724Z,-0.60
2023-01-21T18:39:33.173Z,-0.58
2023-01-21T18:41:59.545Z,-0.54
2023-01-21T18:44:25.953Z,-0.52
2023-01-21T18:46:52.474Z,-0.47
2023-01-21T18:49:18.975Z,-0.46
2023-01-21T18:51:45.357Z,-0.56
2023-01-21T18:54:11.755Z,-0.71
2023-01-21T18:56:41.131Z,-0.71
2023-01-21T18:59:07.546Z,-0.77
2023-01-21T19:01:34.048Z,-0.73
2023-01-21T19:04:00.544Z,-0.77
2023-01-21T19:06:26.934Z,-0.74
2023-01-21T19:08:53.369Z,-0.77
2023-01-21T19:11:19.774Z,-0.87
2023-01-21T19:13:46.268Z,-0.91
2023-01-21T19:16:12.707Z,-1.15
2023-01-21T19:18:39.107Z,-1.17
2023-01-21T19:21:05.568Z,-1.18
2023-01-21T19:23:31.963Z,-1.18
2023-01-21T19:25:58.573Z,-1.13
2023-01-21T19:28:25.013Z,-1.28
2023-01-21T19:30:51.504Z,-1.19
2023-01-21T19:33:17.901Z,-1.24
2023-01-21T19:35:44.361Z,-1.02
2023-01-21T19:38:10.765Z,-1.06
2023-01-21T19:40:38.465Z,-1.18
2023-01-21T19:43:04.872Z,-1.08
2023-01-21T19:45:31.257Z,-1.00
2023-01-21T19:47:57.655Z,-1.13
2023-01-21T19:50:26.633Z,-1.18
2023-01-21T19:52:53.164Z,-1.23
2023-01-21T19:55:19.676Z,-1.18
2023-01-21T19:57:46.187Z,-1.13
2023-01-21T20:00:12.625Z,-1.12
2023-01-21T20:02:39.004Z,-1.25
2023-01-21T20:05:05.506Z,-1.17
2023-01-21T20:07:33.818Z,-1.18
2023-01-21T20:10:00.467Z,-1.04
2023-01-21T20:12:27.045Z,-1.14
2023-01-21T20:14:53.422Z,-1.11
2023-01-21T20:17:19.849Z,-1.10
2023-01-21T20:19:46.257Z,-1.07
2023-01-21T20:22:12.663Z,-1.00
2023-01-21T20:24:39.101Z,-1.05
2023-01-21T20:27:06.728Z,-1.04
2023-01-21T20:29:36.047Z,-1.11
2023-01-21T20:32:04.163Z,-1.06
2023-01-21T20:34:30.608Z,-1.06
2023-01-21T20:36:56.971Z,-1.00
2023-01-21T20:39:23.344Z,-1.08
2023-01-21T20:41:49.728Z,-1.23
2023-01-21T20:44:16.159Z,-1.25
2023-01-21T20:46:42.556Z,-1.16
2023-01-21T20:49:09.068Z,-1.17
2023-01-21T20:51:35.433Z,-1.15
2023-01-21T20:54:01.872Z,-1.20
2023-01-21T20:56:29.536Z,-1.04
2023-01-21T20:58:56.005Z,-1.15
2023-01-21T21:01:22.387Z,-1.27
2023-01-21T21:03:48.758Z,-1.23
2023-01-21T21:06:15.291Z,-1.18
2023-01-21T21:08:41.694Z,-1.21
2023-01-21T21:11:08.098Z,-1.14
2023-01-21T21:13:34.534Z,-1.13
2023-01-21T21:16:01.033Z,-1.12
2023-01-21T21:18:27.471Z,-1.21
2023-01-21T21:20:53.917Z,-1.18
2023-01-21T21:23:20.307Z,-1.06
2023-01-21T21:25:46.682Z,-0.97
2023-01-21T21:28:13.118Z,-0.95
2023-01-21T21:30:39.544Z,-0.84
2023-01-21T21:33:05.931Z,-0.92
2023-01-21T21:35:32.339Z,-0.91
2023-01-21T21:37:58.742Z,-0.81
2023-01-21T21:40:28.161Z,-0.83
2023-01-21T21:42:54.548Z,-0.84
2023-01-21T21:45:20.939Z,-0.76
2023-01-21T21:47:47.316Z,-0.80
2023-01-21T21:50:13.684Z,-0.86
2023-01-21T21:52:40.057Z,-0.79
2023-01-21T21:55:06.417Z,-0.74
2023-01-21T21:57:32.792Z,-0.76
2023-01-21T21:59:59.288Z,-0.82
2023-01-21T22:02:25.725Z,-0.72
2023-01-21T22:04:52.133Z,-0.64
2023-01-21T22:07:18.506Z,-0.63
2023-01-21T22:09:44.881Z,-0.67
2023-01-21T22:12:11.251Z,-0.73
2023-01-21T22:14:37.693Z,-0.70
2023-01-21T22:17:04.100Z,-0.67
2023-01-21T22:19:30.498Z,-0.68
2023-01-21T22:21:56.887Z,-0.77
2023-01-21T22:24:23.296Z,-0.83
2023-01-21T22:26:49.655Z,-0.66
2023-01-21T22:29:16.052Z,-0.64
2023-01-21T22:31:42.563Z,-0.64
2023-01-21T22:34:08.982Z,-0.62
2023-01-21T22:36:35.473Z,-0.61
2023-01-21T22:39:01.855Z,-0.67
2023-01-21T22:41:28.236Z,-0.72
2023-01-21T22:43:54.641Z,-0.69
2023-01-21T22:46:21.168Z,-0.78
2023-01-21T22:48:47.640Z,-0.67
2023-01-21T22:51:14.046Z,-0.70
2023-01-21T22:53:40.480Z,-0.63
2023-01-21T22:56:06.876Z,-0.68
2023-01-21T22:58:33.280Z,-0.62
2023-01-21T23:00:59.687Z,-0.67
2023-01-21T23:03:26.115Z,-0.73
2023-01-21T23:05:52.554Z,-0.66
2023-01-21T23:08:18.914Z,-0.70
2023-01-21T23:10:45.274Z,-0.66
2023-01-21T23:13:11.666Z,-0.73
2023-01-21T23:15:38.076Z,-0.64
2023-01-21T23:18:04.559Z,-0.52
2023-01-21T23:20:32.867Z,-0.48
2023-01-21T23:22:59.224Z,-0.61
2023-01-21T23:25:25.606Z,-0.63
2023-01-21T23:27:51.990Z,-0.64
2023-01-21T23:30:18.594Z,-0.59
2023-01-21T23:32:45.190Z,-0.70
2023-01-21T23:35:11.579Z,-0.71
2023-01-21T23:37:37.957Z,-0.70
2023-01-21T23:40:04.366Z,-0.71
2023-01-21T23:42:30.732Z,-0.61
2023-01-21T23:44:57.144Z,-0.68
2023-01-21T23:47:23.519Z,-0.68
2023-01-21T23:49:49.939Z,-0.62
2023-01-21T23:52:16.335Z,-0.72
2023-01-21T23:54:42.714Z,-0.67
2023-01-21T23:57:09.105Z,-0.62
2023-01-21T23:59:35.550Z,-0.56
